Time;durP1;ratioP1;P1;durP2;ratioP2;P2;SDS_P1;SDS_P2;PMS_P1;PMS_P2;Temp;Humidity;BMP_temperature;BMP_pressure;BME280_temperature;BME280_humidity;BME280_pressure;Samples;Min_cycle;Max_cycle;Signal;HPM_P1;HPM_P2
2023/01/10 00:01:56;;;;;;;6.00;1.60;;;4.90;99.90;;;;;;5063256;28;20071;-81
2023/01/10 00:04:25;;;;;;;7.05;1.90;;;4.90;99.90;;;;;;5091501;28;20037;-81
2023/01/10 00:06:52;;;;;;;8.60;1.80;;;4.90;99.90;;;;;;5103717;28;20097;-81
2023/01/10 00:09:19;;;;;;;9.75;1.50;;;4.90;99.90;;;;;;5081188;28;20040;-81
2023/01/10 00:14:33;;;;;;;9.85;1.90;;;5.20;99.90;;;;;;5107617;28;20420;-81
2023/01/10 00:17:03;;;;;;;8.38;1.50;;;4.80;99.90;;;;;;5098853;28;20053;-81
2023/01/10 00:19:30;;;;;;;7.45;2.38;;;5.20;99.90;;;;;;5073779;28;20040;-81
2023/01/10 00:22:03;;;;;;;10.23;2.05;;;4.70;99.90;;;;;;5096953;28;20066;-81
2023/01/10 00:24:30;;;;;;;9.55;2.00;;;4.90;99.90;;;;;;5110819;28;20044;-81
2023/01/10 00:26:58;;;;;;;6.80;1.85;;;4.70;99.90;;;;;;5078208;28;20040;-81
2023/01/10 00:29:27;;;;;;;9.13;2.28;;;4.70;99.90;;;;;;5090801;28;20044;-81
2023/01/10 00:31:54;;;;;;;10.20;1.88;;;4.70;99.90;;;;;;5101820;28;20424;-81
2023/01/10 00:34:21;;;;;;;13.50;2.10;;;4.60;99.90;;;;;;5110975;28;20047;-81
2023/01/10 00:36:48;;;;;;;9.40;1.65;;;4.60;99.90;;;;;;5074302;28;20412;-81
2023/01/10 00:39:18;;;;;;;9.52;2.03;;;4.50;99.90;;;;;;5074532;28;20571;-81
2023/01/10 00:44:30;;;;;;;7.95;1.95;;;4.50;99.90;;;;;;5107069;28;20131;-81
2023/01/10 00:46:57;;;;;;;12.85;2.00;;;4.40;99.90;;;;;;5074493;28;20167;-81
2023/01/10 00:49:23;;;;;;;10.40;2.15;;;4.40;99.90;;;;;;5074050;28;20455;-81
2023/01/10 00:51:50;;;;;;;10.88;2.10;;;4.30;99.90;;;;;;5089038;28;20070;-81
2023/01/10 00:54:17;;;;;;;13.25;2.15;;;4.40;99.90;;;;;;5090899;28;20043;-81
2023/01/10 00:56:43;;;;;;;16.08;2.28;;;4.30;99.90;;;;;;5077300;28;20050;-81
2023/01/10 00:59:10;;;;;;;10.95;2.10;;;4.30;99.90;;;;;;5090484;28;20511;-81
2023/01/10 01:01:37;;;;;;;12.68;2.53;;;4.40;99.90;;;;;;5093860;28;20093;-81
2023/01/10 01:04:03;;;;;;;11.70;2.88;;;4.40;99.90;;;;;;5093811;28;20081;-81
2023/01/10 01:06:30;;;;;;;9.88;2.17;;;4.20;99.90;;;;;;5110183;28;20066;-81
2023/01/10 01:08:57;;;;;;;12.35;2.90;;;4.20;99.90;;;;;;5103043;28;20164;-81
2023/01/10 01:11:24;;;;;;;10.15;2.50;;;4.20;99.90;;;;;;5073654;28;20062;-81
2023/01/10 01:13:51;;;;;;;9.63;1.98;;;4.20;99.90;;;;;;5073585;28;20044;-81
2023/01/10 01:16:18;;;;;;;14.10;2.80;;;4.20;99.90;;;;;;5091928;28;20101;-81
2023/01/10 01:18:44;;;;;;;10.00;2.20;;;4.20;99.90;;;;;;5104469;28;20047;-81
2023/01/10 01:21:11;;;;;;;14.98;2.83;;;4.20;99.90;;;;;;5108911;28;20499;-81
2023/01/10 01:23:38;;;;;;;21.65;2.67;;;4.20;99.90;;;;;;5089890;28;20096;-81
2023/01/10 01:26:05;;;;;;;17.67;2.53;;;4.40;99.90;;;;;;5057089;28;20044;-81
2023/01/10 01:28:32;;;;;;;18.25;3.40;;;4.50;99.90;;;;;;5091158;28;20039;-81
2023/01/10 01:31:05;;;;;;;21.52;2.53;;;4.30;99.90;;;;;;5088983;28;20063;-81
2023/01/10 01:33:31;;;;;;;13.30;2.60;;;4.30;99.90;;;;;;5105187;28;20440;-81
2023/01/10 01:35:58;;;;;;;18.17;2.47;;;4.40;99.90;;;;;;5097951;28;20044;-81
2023/01/10 01:38:25;;;;;;;9.07;2.40;;;4.40;99.90;;;;;;5073082;28;20064;-81
2023/01/10 01:40:51;;;;;;;13.05;2.45;;;4.50;99.90;;;;;;5097141;28;20043;-81
2023/01/10 01:43:30;;;;;;;12.95;1.98;;;4.50;99.90;;;;;;5081600;28;20761;-81
2023/01/10 01:46:02;;;;;;;17.67;2.67;;;4.50;99.90;;;;;;5073622;28;20531;-81
2023/01/10 01:48:33;;;;;;;18.90;2.47;;;4.50;99.90;;;;;;5106095;28;20481;-81
2023/01/10 01:51:17;;;;;;;12.77;2.60;;;4.60;99.90;;;;;;5096950;28;20075;-81
2023/01/10 01:53:49;;;;;;;15.93;2.97;;;4.60;99.90;;;;;;5109517;28;20070;-81
2023/01/10 01:56:29;;;;;;;15.85;2.95;;;4.70;99.90;;;;;;5101311;28;20039;-81
2023/01/10 01:59:13;;;;;;;10.50;2.00;;;4.70;99.90;;;;;;5094531;28;20523;-81
2023/01/10 02:01:42;;;;;;;15.70;2.47;;;4.70;99.90;;;;;;5112287;28;20036;-81
2023/01/10 02:04:22;;;;;;;14.82;2.53;;;4.70;99.90;;;;;;5109457;28;20831;-81
2023/01/10 02:06:52;;;;;;;18.42;2.45;;;4.70;99.90;;;;;;5097103;28;20044;-81
2023/01/10 02:09:40;;;;;;;14.80;2.22;;;4.60;99.90;;;;;;5105084;28;20044;-81
2023/01/10 02:12:08;;;;;;;14.60;2.50;;;4.70;99.90;;;;;;5116754;28;20048;-81
2023/01/10 02:14:37;;;;;;;18.27;2.97;;;4.60;99.90;;;;;;5109755;28;20052;-81
2023/01/10 02:17:07;;;;;;;15.88;2.55;;;4.60;99.90;;;;;;5076097;28;20044;-81
2023/01/10 02:19:49;;;;;;;18.08;2.70;;;4.50;99.90;;;;;;5109123;28;20044;-81
2023/01/10 02:22:46;;;;;;;17.08;2.30;;;4.50;99.90;;;;;;5108560;28;20044;-81
2023/01/10 02:25:51;;;;;;;14.45;2.58;;;4.50;99.90;;;;;;5097151;28;20408;-81
2023/01/10 02:28:55;;;;;;;14.85;2.40;;;4.50;99.90;;;;;;5101372;28;20056;-81
2023/01/10 02:31:35;;;;;;;16.73;2.28;;;4.50;99.90;;;;;;5088802;28;20040;-81
2023/01/10 02:34:10;;;;;;;16.20;3.05;;;4.50;99.90;;;;;;5113843;28;20508;-81
2023/01/10 02:36:43;;;;;;;18.23;2.85;;;4.50;99.90;;;;;;5096117;28;20072;-81
2023/01/10 02:39:23;;;;;;;20.00;3.33;;;4.50;99.90;;;;;;5124116;28;20133;-81
2023/01/10 02:42:17;;;;;;;17.83;3.08;;;4.80;99.90;;;;;;5108963;28;20036;-81
2023/01/10 02:44:56;;;;;;;19.55;2.88;;;4.50;99.90;;;;;;5108821;28;20127;-81
2023/01/10 02:47:23;;;;;;;19.60;2.40;;;4.50;99.90;;;;;;5109347;28;20047;-81
2023/01/10 02:49:51;;;;;;;14.43;2.17;;;4.50;99.90;;;;;;5104326;28;20036;-81
2023/01/10 02:52:29;;;;;;;17.45;2.47;;;4.50;99.90;;;;;;5097240;28;20047;-81
2023/01/10 02:55:00;;;;;;;18.60;2.75;;;4.50;99.90;;;;;;5095623;28;20036;-81
2023/01/10 02:57:41;;;;;;;17.95;2.22;;;4.50;99.90;;;;;;5095018;28;20128;-81
2023/01/10 03:00:17;;;;;;;12.10;1.98;;;4.50;99.90;;;;;;5098294;28;20115;-81
2023/01/10 03:02:47;;;;;;;18.95;3.00;;;4.60;99.90;;;;;;5113994;28;20043;-81
2023/01/10 03:05:29;;;;;;;16.88;2.90;;;4.60;99.90;;;;;;5093010;28;20051;-81
2023/01/10 03:08:47;;;;;;;11.77;3.17;;;4.60;99.90;;;;;;5092619;28;20044;-81
2023/01/10 03:11:14;;;;;;;14.95;2.80;;;4.70;99.90;;;;;;5059348;28;20121;-81
2023/01/10 03:13:56;;;;;;;18.13;2.70;;;4.70;99.90;;;;;;5075645;28;20060;-81
2023/01/10 03:16:28;;;;;;;23.48;2.55;;;4.70;99.90;;;;;;5104369;28;20522;-81
2023/01/10 03:19:07;;;;;;;14.55;2.42;;;5.00;99.90;;;;;;5092332;28;20123;-81
2023/01/10 03:21:37;;;;;;;13.13;2.85;;;4.70;99.90;;;;;;5098247;28;20043;-81
2023/01/10 03:24:12;;;;;;;13.90;2.33;;;4.70;99.90;;;;;;5096334;28;20116;-81
2023/01/10 03:27:02;;;;;;;10.48;2.50;;;4.70;99.90;;;;;;5108833;28;20446;-81
2023/01/10 03:29:44;;;;;;;9.75;2.53;;;4.70;99.90;;;;;;5109604;28;20044;-81
2023/01/10 03:32:13;;;;;;;15.32;2.17;;;4.70;99.90;;;;;;5092335;28;20530;-81
2023/01/10 03:34:40;;;;;;;11.43;2.00;;;4.80;99.90;;;;;;5092601;28;20523;-81
2023/01/10 03:37:18;;;;;;;10.55;1.98;;;4.80;99.90;;;;;;5074924;28;20049;-81
2023/01/10 03:39:57;;;;;;;12.55;2.42;;;4.90;99.90;;;;;;5112057;28;20094;-81
2023/01/10 03:45:29;;;;;;;14.10;2.15;;;4.90;99.90;;;;;;5111666;28;20413;-81
2023/01/10 03:48:00;;;;;;;14.90;2.20;;;5.00;99.90;;;;;;5125340;28;20072;-81
2023/01/10 03:50:28;;;;;;;13.98;2.50;;;5.00;99.90;;;;;;5128913;28;20071;-81
2023/01/10 03:52:56;;;;;;;16.00;2.47;;;4.90;99.90;;;;;;5124916;28;20127;-81
2023/01/10 03:55:27;;;;;;;19.48;2.65;;;5.00;99.90;;;;;;5091750;28;20037;-81
2023/01/10 03:57:54;;;;;;;12.73;2.20;;;5.00;99.90;;;;;;5099281;28;20036;-81
2023/01/10 04:00:21;;;;;;;20.05;3.03;;;4.90;99.90;;;;;;5077125;28;20063;-81
2023/01/10 04:02:47;;;;;;;12.90;2.05;;;4.80;99.90;;;;;;5112039;28;20083;-80
2023/01/10 04:05:14;;;;;;;12.82;2.65;;;4.90;99.90;;;;;;5074316;28;20111;-81
2023/01/10 04:07:41;;;;;;;14.23;2.08;;;4.80;99.90;;;;;;5075214;28;20511;-81
2023/01/10 04:10:08;;;;;;;21.20;2.58;;;4.90;99.90;;;;;;5107797;28;20046;-81
2023/01/10 04:12:35;;;;;;;12.50;2.88;;;4.90;99.90;;;;;;5090744;28;20055;-80
2023/01/10 04:15:02;;;;;;;16.25;2.83;;;4.90;99.90;;;;;;5091844;28;20041;-81
2023/01/10 04:17:29;;;;;;;17.05;2.28;;;4.90;99.90;;;;;;5093845;28;20046;-81
2023/01/10 04:19:55;;;;;;;14.45;2.28;;;4.90;99.90;;;;;;5091799;28;20451;-81
2023/01/10 04:22:22;;;;;;;18.70;2.50;;;5.00;99.90;;;;;;5103732;28;20484;-81
2023/01/10 04:24:50;;;;;;;18.38;2.58;;;5.00;99.90;;;;;;5094614;28;20043;-81
2023/01/10 04:27:18;;;;;;;11.13;3.10;;;5.00;99.90;;;;;;5096437;28;20045;-81
2023/01/10 04:29:45;;;;;;;14.50;2.25;;;5.00;99.90;;;;;;5091304;28;20097;-81
2023/01/10 04:32:12;;;;;;;16.98;2.50;;;5.00;99.90;;;;;;5091001;28;20047;-81
2023/01/10 04:34:39;;;;;;;15.50;2.50;;;5.00;99.90;;;;;;5083777;28;20416;-81
2023/01/10 04:37:05;;;;;;;15.02;2.42;;;5.00;99.90;;;;;;5100734;28;20044;-81
2023/01/10 04:39:32;;;;;;;9.65;2.00;;;5.00;99.90;;;;;;5094633;28;20028;-81
2023/01/10 04:41:59;;;;;;;9.18;2.10;;;4.90;99.90;;;;;;5090361;28;20102;-81
2023/01/10 04:44:25;;;;;;;12.98;2.45;;;4.90;99.90;;;;;;5058000;28;20072;-81
2023/01/10 04:46:52;;;;;;;9.20;2.10;;;4.80;99.90;;;;;;5092075;28;20485;-81
2023/01/10 04:49:19;;;;;;;15.55;2.47;;;4.70;99.90;;;;;;5093867;28;20036;-81
2023/01/10 04:51:45;;;;;;;13.13;2.25;;;4.70;99.90;;;;;;5093659;28;20479;-81
2023/01/10 04:54:12;;;;;;;18.45;2.55;;;4.70;99.90;;;;;;5093897;28;20194;-81
2023/01/10 04:56:39;;;;;;;9.65;2.05;;;4.70;99.90;;;;;;5094241;28;20105;-81
2023/01/10 04:59:05;;;;;;;13.10;2.38;;;4.70;99.90;;;;;;5080412;28;20123;-81
2023/01/10 05:01:34;;;;;;;11.85;2.45;;;4.70;99.90;;;;;;5107446;28;20040;-81
2023/01/10 05:04:02;;;;;;;23.95;3.22;;;4.70;99.90;;;;;;5080141;28;20037;-81
2023/01/10 05:06:28;;;;;;;12.70;2.72;;;4.70;99.90;;;;;;5091066;28;20047;-81
2023/01/10 05:08:55;;;;;;;13.77;2.42;;;4.70;99.90;;;;;;5077636;28;20037;-81
2023/01/10 05:11:22;;;;;;;15.27;2.72;;;4.90;99.90;;;;;;5093449;28;20036;-81
2023/01/10 05:13:50;;;;;;;12.07;2.13;;;4.70;99.90;;;;;;5110443;28;20117;-81
2023/01/10 05:16:16;;;;;;;11.93;2.33;;;4.80;99.90;;;;;;5074434;28;20036;-81
2023/01/10 05:18:43;;;;;;;14.90;2.95;;;4.70;99.90;;;;;;5075389;28;20045;-81
2023/01/10 05:21:12;;;;;;;14.30;2.40;;;4.70;99.90;;;;;;5103876;28;20036;-81
2023/01/10 05:23:39;;;;;;;17.15;2.80;;;4.70;99.90;;;;;;5082673;28;20764;-81
2023/01/10 05:26:13;;;;;;;22.27;3.47;;;4.60;99.90;;;;;;5110052;28;20404;-81
2023/01/10 05:28:40;;;;;;;8.75;2.33;;;4.60;99.90;;;;;;5104768;28;20111;-81
2023/01/10 05:31:10;;;;;;;15.52;2.95;;;4.60;99.90;;;;;;5073258;28;20036;-81
2023/01/10 05:33:37;;;;;;;15.82;2.60;;;4.60;99.90;;;;;;5090127;28;20044;-81
2023/01/10 05:36:06;;;;;;;16.20;2.70;;;4.60;99.90;;;;;;5078463;28;20043;-81
2023/01/10 05:38:33;;;;;;;14.88;2.80;;;4.70;99.90;;;;;;5093215;28;20081;-81
2023/01/10 05:41:00;;;;;;;16.52;2.58;;;4.70;99.90;;;;;;5089783;28;20051;-81
2023/01/10 05:43:27;;;;;;;11.98;2.70;;;4.80;99.90;;;;;;5100327;28;20430;-81
2023/01/10 05:45:54;;;;;;;13.15;2.88;;;4.80;99.90;;;;;;5093189;28;20036;-81
2023/01/10 05:48:20;;;;;;;11.18;2.45;;;4.90;99.90;;;;;;5109445;28;20507;-81
2023/01/10 05:50:49;;;;;;;12.93;3.30;;;5.00;99.90;;;;;;5073579;28;20045;-80
2023/01/10 05:53:16;;;;;;;13.18;3.17;;;5.00;99.90;;;;;;5080666;28;20541;-81
2023/01/10 05:55:43;;;;;;;19.15;2.88;;;4.80;99.90;;;;;;5093228;28;20047;-81
2023/01/10 05:58:10;;;;;;;14.30;3.10;;;4.90;99.90;;;;;;5091877;28;20467;-81
2023/01/10 06:00:38;;;;;;;18.58;4.57;;;5.10;99.90;;;;;;5073321;28;20040;-81
2023/01/10 06:03:05;;;;;;;14.63;3.13;;;4.90;99.90;;;;;;5084915;28;20035;-81
2023/01/10 06:05:32;;;;;;;19.65;3.05;;;5.00;99.90;;;;;;5089569;28;20040;-81
2023/01/10 06:07:58;;;;;;;18.88;3.40;;;5.10;99.90;;;;;;5089009;28;20119;-80
2023/01/10 06:10:25;;;;;;;14.75;3.75;;;5.10;99.90;;;;;;5088904;28;20036;-81
2023/01/10 06:12:52;;;;;;;16.23;3.60;;;5.20;99.90;;;;;;5070080;28;20052;-81
2023/01/10 06:15:18;;;;;;;20.83;3.70;;;5.20;99.90;;;;;;5091826;28;20046;-81
2023/01/10 06:17:45;;;;;;;19.27;3.67;;;5.20;99.90;;;;;;5091663;28;20056;-81
2023/01/10 06:20:12;;;;;;;24.67;3.63;;;5.20;99.90;;;;;;5111636;28;20081;-81
2023/01/10 06:22:41;;;;;;;17.60;3.40;;;5.20;99.90;;;;;;5112693;28;20142;-81
2023/01/10 06:25:13;;;;;;;22.48;3.97;;;5.20;99.90;;;;;;5129541;28;20054;-80
2023/01/10 06:27:41;;;;;;;25.83;3.85;;;5.20;99.90;;;;;;5147466;28;20045;-81
2023/01/10 06:30:11;;;;;;;23.92;3.85;;;5.20;99.90;;;;;;5096283;28;20040;-81
2023/01/10 06:32:38;;;;;;;18.02;3.58;;;5.30;99.90;;;;;;5115901;28;20040;-81
2023/01/10 06:35:05;;;;;;;17.80;3.35;;;5.30;99.90;;;;;;5110140;28;20031;-81
2023/01/10 06:37:32;;;;;;;17.27;3.60;;;5.30;99.90;;;;;;5092454;28;20036;-81
2023/01/10 06:39:58;;;;;;;14.82;2.88;;;5.20;99.90;;;;;;5072796;28;20040;-81
2023/01/10 06:42:25;;;;;;;11.55;3.40;;;5.30;99.90;;;;;;5119627;28;20047;-81
2023/01/10 06:44:52;;;;;;;14.57;3.38;;;5.30;99.90;;;;;;5085674;28;20044;-81
2023/01/10 06:47:19;;;;;;;9.52;2.53;;;5.50;99.90;;;;;;5075409;28;20043;-81
2023/01/10 06:49:45;;;;;;;18.80;3.00;;;5.30;99.90;;;;;;5102798;28;20036;-81
2023/01/10 06:52:12;;;;;;;18.05;2.72;;;5.30;99.90;;;;;;5072159;28;20040;-81
2023/01/10 06:54:40;;;;;;;17.50;3.10;;;5.30;99.90;;;;;;5093592;28;20119;-80
2023/01/10 06:57:07;;;;;;;15.70;2.50;;;5.30;99.90;;;;;;5089084;28;20517;-81
2023/01/10 06:59:34;;;;;;;13.00;2.55;;;5.40;99.90;;;;;;5112845;28;20492;-80
2023/01/10 07:02:00;;;;;;;13.80;2.58;;;5.10;99.90;;;;;;5095447;28;20048;-81
2023/01/10 07:04:27;;;;;;;16.10;4.50;;;5.10;99.90;;;;;;5090543;28;20032;-81
2023/01/10 07:06:54;;;;;;;10.10;3.22;;;5.10;99.90;;;;;;5081254;28;20096;-81
2023/01/10 07:09:20;;;;;;;10.65;2.78;;;5.00;99.90;;;;;;5111519;28;20040;-81
2023/01/10 07:11:47;;;;;;;14.60;4.05;;;4.90;99.90;;;;;;5113228;28;20059;-81
2023/01/10 07:14:14;;;;;;;10.30;3.03;;;4.90;99.90;;;;;;5055717;28;20060;-80
2023/01/10 07:16:40;;;;;;;10.90;3.42;;;4.90;99.90;;;;;;5089402;28;20123;-80
2023/01/10 07:19:07;;;;;;;13.88;3.22;;;4.80;99.90;;;;;;5096722;28;20044;-80
2023/01/10 07:21:34;;;;;;;8.77;2.90;;;4.80;99.90;;;;;;5091806;28;20043;-80
2023/01/10 07:24:00;;;;;;;20.15;3.30;;;4.80;99.90;;;;;;5103421;28;20048;-80
2023/01/10 07:26:28;;;;;;;8.48;2.00;;;4.80;99.90;;;;;;5115970;28;20131;-80
2023/01/10 07:28:55;;;;;;;11.43;2.05;;;4.90;99.90;;;;;;5074359;28;20037;-80
2023/01/10 07:31:23;;;;;;;8.82;2.33;;;4.70;99.90;;;;;;5121954;28;20476;-80
2023/01/10 07:33:51;;;;;;;15.25;1.92;;;4.90;99.90;;;;;;5101843;28;20051;-80
2023/01/10 07:36:17;;;;;;;12.43;3.95;;;4.70;99.90;;;;;;5107197;28;20481;-81
2023/01/10 07:38:44;;;;;;;8.60;2.25;;;4.70;99.90;;;;;;5073112;28;20127;-80
2023/01/10 07:41:11;;;;;;;9.68;1.98;;;4.80;99.90;;;;;;5108173;28;20036;-80
2023/01/10 07:43:37;;;;;;;13.35;2.08;;;4.90;99.90;;;;;;5108207;28;20135;-81
2023/01/10 07:46:10;;;;;;;8.60;2.17;;;4.90;99.90;;;;;;5109329;28;20035;-80
2023/01/10 07:48:40;;;;;;;11.38;2.13;;;5.20;99.90;;;;;;5117619;28;20037;-81
2023/01/10 07:51:07;;;;;;;9.50;2.00;;;5.00;99.90;;;;;;5070099;28;20032;-81
2023/01/10 07:53:33;;;;;;;9.52;2.42;;;5.20;99.90;;;;;;5094675;28;20081;-80
2023/01/10 07:56:02;;;;;;;9.57;1.95;;;5.10;99.90;;;;;;5106360;28;20039;-81
2023/01/10 07:58:29;;;;;;;11.27;2.45;;;5.10;99.90;;;;;;5107391;28;20425;-81
2023/01/10 08:01:00;;;;;;;8.15;1.88;;;5.10;99.90;;;;;;5105485;28;20040;-80
2023/01/10 08:03:28;;;;;;;14.32;2.47;;;5.10;99.90;;;;;;5094667;28;20044;-81
2023/01/10 08:05:59;;;;;;;9.38;2.00;;;5.20;99.90;;;;;;5091311;28;20045;-81
2023/01/10 08:08:26;;;;;;;12.68;2.33;;;5.20;99.90;;;;;;5074210;28;20032;-81
2023/01/10 08:10:53;;;;;;;8.40;2.03;;;5.20;99.90;;;;;;5091210;28;20097;-81
2023/01/10 08:13:20;;;;;;;11.32;2.75;;;5.20;99.90;;;;;;5080415;28;20084;-81
2023/01/10 08:15:49;;;;;;;16.60;2.50;;;5.20;99.90;;;;;;5092438;28;20056;-82
2023/01/10 08:18:16;;;;;;;12.00;2.03;;;5.20;99.90;;;;;;5091611;28;20435;-80
2023/01/10 08:20:42;;;;;;;11.65;2.65;;;5.20;99.90;;;;;;5086986;28;20054;-81
2023/01/10 08:23:09;;;;;;;10.13;2.53;;;5.30;99.90;;;;;;5085545;28;20567;-81
2023/01/10 08:25:36;;;;;;;8.73;2.65;;;5.30;99.90;;;;;;5085264;28;20031;-80
2023/01/10 08:28:02;;;;;;;15.82;2.10;;;5.30;99.90;;;;;;5092650;28;20036;-79
2023/01/10 08:30:29;;;;;;;12.40;2.72;;;5.40;99.90;;;;;;5114766;28;20032;-81
2023/01/10 08:32:56;;;;;;;7.35;2.10;;;5.60;99.90;;;;;;5110533;28;20028;-80
2023/01/10 08:35:23;;;;;;;10.80;2.65;;;5.40;99.90;;;;;;5105143;28;20043;-81
2023/01/10 08:37:50;;;;;;;22.00;2.50;;;5.50;99.90;;;;;;5092554;28;20496;-81
2023/01/10 08:40:17;;;;;;;11.52;2.42;;;5.50;99.90;;;;;;5122538;28;20500;-81
2023/01/10 08:42:43;;;;;;;14.43;3.03;;;5.50;99.90;;;;;;5102981;28;20105;-82
2023/01/10 08:45:10;;;;;;;6.95;2.20;;;5.50;99.90;;;;;;5113996;28;20407;-81
2023/01/10 08:47:37;;;;;;;9.27;2.45;;;5.60;99.90;;;;;;5091431;28;20043;-82
2023/01/10 08:50:04;;;;;;;9.55;2.33;;;5.60;99.90;;;;;;5093846;28;20119;-81
2023/01/10 08:52:31;;;;;;;16.17;2.97;;;5.70;99.90;;;;;;5089634;28;20040;-81
2023/01/10 08:54:57;;;;;;;19.90;2.65;;;5.70;99.90;;;;;;5095463;28;20044;-81
2023/01/10 08:57:24;;;;;;;12.98;2.78;;;5.80;99.90;;;;;;5086845;28;20121;-81
2023/01/10 08:59:51;;;;;;;15.73;2.88;;;5.80;99.90;;;;;;5116236;28;20040;-81
2023/01/10 09:02:17;;;;;;;7.72;2.55;;;5.80;99.90;;;;;;5076973;28;20126;-81
2023/01/10 09:04:44;;;;;;;9.52;1.98;;;5.80;99.90;;;;;;5091094;28;20786;-81
2023/01/10 09:07:11;;;;;;;8.45;2.30;;;5.80;99.90;;;;;;5094177;28;20044;-81
2023/01/10 09:09:38;;;;;;;11.50;2.42;;;5.80;99.90;;;;;;5076294;28;20071;-82
2023/01/10 09:12:53;;;;;;;15.85;1.90;;;5.80;99.90;;;;;;5109670;28;20468;-81
2023/01/10 09:14:51;;;;;;;12.05;2.13;;;5.90;99.90;;;;;;5111956;28;20501;-81
2023/01/10 09:17:18;;;;;;;12.15;2.15;;;5.90;99.90;;;;;;5076818;28;20047;-81
2023/01/10 09:19:44;;;;;;;14.43;2.80;;;5.90;99.90;;;;;;5076493;28;20456;-81
2023/01/10 09:22:11;;;;;;;13.35;2.33;;;5.90;99.90;;;;;;5090276;28;20044;-81
2023/01/10 09:24:38;;;;;;;10.60;1.77;;;6.00;99.90;;;;;;5072789;28;20084;-81
2023/01/10 09:27:05;;;;;;;8.07;1.90;;;6.00;99.90;;;;;;5079778;28;20032;-81
2023/01/10 09:29:31;;;;;;;12.68;2.28;;;6.00;99.90;;;;;;5104384;28;20033;-81
2023/01/10 09:31:58;;;;;;;11.20;1.50;;;6.00;99.90;;;;;;5099398;28;20046;-81
2023/01/10 09:34:25;;;;;;;10.23;2.45;;;6.00;99.90;;;;;;5093328;28;20040;-81
2023/01/10 09:36:52;;;;;;;6.22;1.80;;;6.00;99.90;;;;;;5101012;28;20032;-81
2023/01/10 09:39:20;;;;;;;10.65;2.58;;;6.00;99.90;;;;;;5093427;28;20040;-81
2023/01/10 09:42:20;;;;;;;6.45;2.08;;;6.00;99.90;;;;;;5092837;28;20847;-81
2023/01/10 09:45:19;;;;;;;7.47;2.10;;;6.00;99.90;;;;;;5126042;28;20442;-81
2023/01/10 09:48:01;;;;;;;14.57;2.38;;;6.10;99.90;;;;;;5107244;28;20565;-80
2023/01/10 09:50:51;;;;;;;14.00;2.55;;;6.10;99.90;;;;;;5092867;28;20512;-81
2023/01/10 09:53:21;;;;;;;15.40;2.63;;;6.10;99.90;;;;;;5105552;28;20044;-81
2023/01/10 09:55:53;;;;;;;11.15;2.13;;;6.10;99.90;;;;;;5110754;28;20044;-81
2023/01/10 09:58:27;;;;;;;15.45;2.45;;;6.20;99.90;;;;;;5133381;28;20119;-81
2023/01/10 10:00:58;;;;;;;9.38;2.10;;;6.10;99.90;;;;;;5109046;28;20040;-81
2023/01/10 10:03:50;;;;;;;10.20;1.83;;;6.20;99.90;;;;;;5109604;28;20127;-81
2023/01/10 10:06:17;;;;;;;9.00;2.20;;;6.20;99.90;;;;;;5109239;28;20032;-81
2023/01/10 10:08:46;;;;;;;9.65;2.03;;;6.20;99.90;;;;;;5071619;28;20511;-82
2023/01/10 10:11:35;;;;;;;13.05;1.85;;;6.30;99.90;;;;;;5112245;28;20488;-81
2023/01/10 10:14:27;;;;;;;11.77;2.20;;;6.30;99.90;;;;;;5108916;28;20052;-81
2023/01/10 10:17:06;;;;;;;12.75;2.65;;;6.30;99.90;;;;;;5097920;28;20048;-81
2023/01/10 10:19:59;;;;;;;9.20;2.00;;;6.30;99.90;;;;;;5088959;28;20067;-81
2023/01/10 10:22:44;;;;;;;12.68;2.25;;;6.40;99.90;;;;;;5113386;28;20045;-80
2023/01/10 10:25:30;;;;;;;13.00;3.23;;;6.40;99.90;;;;;;5113715;28;20458;-81
2023/01/10 10:28:18;;;;;;;11.77;3.50;;;6.40;99.90;;;;;;5130546;28;20280;-81
2023/01/10 10:31:02;;;;;;;22.58;4.38;;;6.40;99.90;;;;;;5116045;28;20041;-81
2023/01/10 10:33:50;;;;;;;8.65;3.20;;;6.40;99.90;;;;;;5088312;28;20044;-81
2023/01/10 10:36:22;;;;;;;13.40;2.72;;;6.40;99.90;;;;;;5088701;28;20497;-81
2023/01/10 10:38:50;;;;;;;16.02;3.92;;;6.40;99.90;;;;;;5105019;28;20052;-81
2023/01/10 10:41:33;;;;;;;10.88;2.65;;;6.40;99.90;;;;;;5096133;28;20047;-81
2023/01/10 10:44:19;;;;;;;11.77;2.70;;;6.50;99.90;;;;;;5125070;28;20044;-81
2023/01/10 10:46:46;;;;;;;9.32;2.42;;;6.50;99.90;;;;;;5106587;28;20412;-81
2023/01/10 10:49:31;;;;;;;12.77;2.35;;;6.50;99.90;;;;;;5071756;28;20044;-81
2023/01/10 10:52:01;;;;;;;8.50;2.50;;;6.50;99.90;;;;;;5088775;28;20044;-81
2023/01/10 10:54:35;;;;;;;8.70;2.15;;;6.50;99.90;;;;;;5088641;28;20048;-81
2023/01/10 10:57:02;;;;;;;8.90;2.00;;;6.60;99.90;;;;;;5089167;28;20465;-81
2023/01/10 10:59:29;;;;;;;15.40;2.75;;;6.60;99.90;;;;;;5096168;28;20083;-81
2023/01/10 11:01:56;;;;;;;9.93;2.22;;;6.60;99.90;;;;;;5074629;28;20039;-81
2023/01/10 11:04:23;;;;;;;8.80;2.63;;;6.60;99.90;;;;;;5091266;28;20037;-81
2023/01/10 11:06:50;;;;;;;17.77;2.80;;;6.60;99.90;;;;;;5125024;28;20401;-81
2023/01/10 11:12:15;;;;;;;12.63;2.28;;;6.70;99.90;;;;;;5096241;28;20048;-81
2023/01/10 11:14:48;;;;;;;12.32;2.10;;;6.70;99.90;;;;;;5108418;28;20127;-81
2023/01/10 11:17:21;;;;;;;16.60;2.50;;;6.70;99.90;;;;;;5108168;28;20072;-81
2023/01/10 11:20:02;;;;;;;16.63;2.67;;;6.70;99.90;;;;;;5108023;28;20078;-81
2023/01/10 11:22:58;;;;;;;8.60;2.20;;;6.70;99.90;;;;;;5118345;28;20919;-81
2023/01/10 11:25:25;;;;;;;10.02;2.45;;;6.80;99.90;;;;;;5063024;28;20590;-81
2023/01/10 11:27:59;;;;;;;8.48;2.20;;;6.80;99.90;;;;;;5091657;28;20070;-81
2023/01/10 11:30:31;;;;;;;12.80;3.08;;;6.80;99.90;;;;;;5112307;28;20040;-81
2023/01/10 11:33:06;;;;;;;14.10;3.20;;;6.80;99.90;;;;;;5128166;28;20051;-81
2023/01/10 11:35:37;;;;;;;11.38;3.30;;;6.80;99.90;;;;;;5096494;28;20029;-81
2023/01/10 11:38:28;;;;;;;19.13;3.20;;;6.80;99.90;;;;;;5098234;28;20039;-81
2023/01/10 11:41:02;;;;;;;15.70;3.85;;;6.90;99.90;;;;;;5096461;28;20035;-81
2023/01/10 11:43:38;;;;;;;10.45;3.10;;;6.90;99.90;;;;;;5107323;28;20549;-81
2023/01/10 11:46:11;;;;;;;;;;;6.90;99.90;;;;;;5112557;28;20153;-81
2023/01/10 11:48:58;;;;;;;18.60;4.25;;;6.90;99.90;;;;;;5114037;28;19915;-80
2023/01/10 11:51:32;;;;;;;19.50;3.47;;;6.90;99.90;;;;;;5123815;28;20089;-81
2023/01/10 11:54:01;;;;;;;14.50;3.67;;;6.90;99.90;;;;;;5124149;28;20119;-81
2023/01/10 11:56:32;;;;;;;16.35;3.53;;;6.90;99.90;;;;;;5121084;28;20461;-81
2023/01/10 11:59:08;;;;;;;18.35;3.85;;;6.90;99.90;;;;;;5118510;28;20051;-81
2023/01/10 12:01:55;;;;;;;13.20;3.53;;;7.00;99.90;;;;;;5113950;28;20075;-81
2023/01/10 12:04:22;;;;;;;25.27;4.85;;;7.00;99.90;;;;;;5111555;28;20044;-81
2023/01/10 12:06:52;;;;;;;13.73;4.47;;;7.00;99.90;;;;;;5102571;28;20033;-81
2023/01/10 12:09:55;;;;;;;15.27;4.57;;;7.00;99.90;;;;;;5120108;28;20101;-81
2023/01/10 12:12:25;;;;;;;19.42;4.32;;;7.00;99.90;;;;;;5112882;28;20036;-81
2023/01/10 12:14:54;;;;;;;12.50;4.22;;;6.90;99.90;;;;;;5114620;28;20122;-81
2023/01/10 12:17:23;;;;;;;18.58;3.67;;;7.00;99.90;;;;;;5111114;28;20118;-81
2023/01/10 12:19:52;;;;;;;15.07;3.65;;;6.90;99.90;;;;;;5119327;28;20166;-81
2023/01/10 12:22:24;;;;;;;12.95;3.35;;;6.90;99.90;;;;;;5111104;28;20518;-81
2023/01/10 12:24:53;;;;;;;11.75;3.35;;;6.90;99.90;;;;;;5114081;28;20092;-81
2023/01/10 12:27:20;;;;;;;9.75;2.80;;;6.90;99.90;;;;;;5112517;28;20109;-81
2023/01/10 12:30:13;;;;;;;12.68;2.92;;;6.90;99.90;;;;;;5074439;28;20041;-80
2023/01/10 12:32:51;;;;;;;20.50;3.15;;;6.90;99.90;;;;;;5105054;28;20052;-81
2023/01/10 12:35:39;;;;;;;10.93;3.13;;;6.90;99.90;;;;;;5108780;28;20063;-80
2023/01/10 12:44:10;;;;;;;13.57;3.40;;;6.90;99.90;;;;;;5137236;28;20036;-80
2023/01/10 12:44:15;;;;;;;11.23;3.60;;;6.80;99.90;;;;;;5123808;28;20050;-81
2023/01/10 12:46:49;;;;;;;18.40;4.15;;;6.80;99.90;;;;;;5092839;28;20043;-81
2023/01/10 12:49:23;;;;;;;17.25;4.80;;;6.80;99.90;;;;;;5121651;28;20035;-81
2023/01/10 12:51:53;;;;;;;28.17;4.97;;;6.80;99.90;;;;;;5107659;28;20032;-80
2023/01/10 12:54:23;;;;;;;18.02;3.55;;;6.80;99.90;;;;;;5090372;28;20090;-81
2023/01/10 12:56:52;;;;;;;19.65;3.70;;;6.80;99.90;;;;;;5102078;28;20047;-81
2023/01/10 12:59:24;;;;;;;10.05;3.58;;;6.80;99.90;;;;;;5093833;28;20041;-80
2023/01/10 13:02:00;;;;;;;13.50;3.42;;;6.80;99.90;;;;;;5098867;28;20048;-81
2023/01/10 13:04:30;;;;;;;12.70;2.97;;;6.80;99.90;;;;;;5127416;28;20492;-81
2023/01/10 13:06:58;;;;;;;19.10;3.75;;;6.80;99.90;;;;;;5127234;28;20044;-80
2023/01/10 13:09:27;;;;;;;25.90;4.03;;;6.70;99.90;;;;;;5083183;28;20044;-80
2023/01/10 13:12:16;;;;;;;16.90;3.42;;;6.70;99.90;;;;;;5118114;28;20036;-80
2023/01/10 13:14:54;;;;;;;16.00;3.42;;;6.70;99.90;;;;;;5127200;28;20393;-81
2023/01/10 13:17:33;;;;;;;16.60;3.30;;;6.70;99.90;;;;;;5112889;28;20035;-81
2023/01/10 13:20:15;;;;;;;16.45;3.63;;;6.70;99.90;;;;;;5108313;28;20118;-80
2023/01/10 13:22:52;;;;;;;18.83;2.72;;;6.70;99.90;;;;;;5127149;28;20040;-81
2023/01/10 13:25:24;;;;;;;20.73;3.05;;;6.70;99.90;;;;;;5107075;28;20717;-80